sensor_id;sensor_type;location;lat;lon;timestamp;pressure;altitude;pressure_sealevel;temperature;humidity
60170;BME280;46042;49.444;6.862;2023-02-02T00:01:58;99413.19;;;3.86;100.00
60170;BME280;46042;49.444;6.862;2023-02-02T00:04:33;99406.25;;;3.85;100.00
60170;BME280;46042;49.444;6.862;2023-02-02T00:07:01;99411.47;;;3.85;100.00
60170;BME280;46042;49.444;6.862;2023-02-02T00:09:30;99409.72;;;3.86;100.00
60170;BME280;46042;49.444;6.862;2023-02-02T00:11:58;99397.63;;;3.83;100.00
60170;BME280;46042;49.444;6.862;2023-02-02T00:14:25;99399.38;;;3.82;100.00
60170;BME280;46042;49.444;6.862;2023-02-02T00:16:54;99401.97;;;3.82;100.00
60170;BME280;46042;49.444;6.862;2023-02-02T00:19:23;99396.78;;;3.82;100.00
60170;BME280;46042;49.444;6.862;2023-02-02T00:21:52;99395.81;;;3.85;100.00
60170;BME280;46042;49.444;6.862;2023-02-02T00:24:19;99393.19;;;3.87;100.00
60170;BME280;46042;49.444;6.862;2023-02-02T00:26:49;99395.81;;;3.85;100.00
60170;BME280;46042;49.444;6.862;2023-02-02T00:29:24;99405.38;;;3.86;100.00
60170;BME280;46042;49.444;6.862;2023-02-02T00:31:51;99403.59;;;3.87;100.00
60170;BME280;46042;49.444;6.862;2023-02-02T00:34:19;99405.38;;;3.86;100.00
60170;BME280;46042;49.444;6.862;2023-02-02T00:36:47;99412.28;;;3.87;100.00
60170;BME280;46042;49.444;6.862;2023-02-02T00:39:19;99407.97;;;3.86;100.00
60170;BME280;46042;49.444;6.862;2023-02-02T00:41:47;99413.13;;;3.88;100.00
60170;BME280;46042;49.444;6.862;2023-02-02T00:44:14;99405.41;;;3.84;100.00
60170;BME280;46042;49.444;6.862;2023-02-02T00:46:59;99409.69;;;3.87;100.00
60170;BME280;46042;49.444;6.862;2023-02-02T00:49:25;99417.44;;;3.90;100.00
60170;BME280;46042;49.444;6.862;2023-02-02T00:51:52;99416.63;;;3.88;100.00
60170;BME280;46042;49.444;6.862;2023-02-02T00:54:19;99422.75;;;3.86;100.00
60170;BME280;46042;49.444;6.862;2023-02-02T00:56:46;99427.97;;;3.86;100.00
60170;BME280;46042;49.444;6.862;2023-02-02T00:59:12;99420.13;;;3.87;100.00
60170;BME280;46042;49.444;6.862;2023-02-02T01:01:39;99421.81;;;3.88;100.00
60170;BME280;46042;49.444;6.862;2023-02-02T01:04:06;99420.94;;;3.89;100.00
60170;BME280;46042;49.444;6.862;2023-02-02T01:06:33;99418.41;;;3.86;100.00
60170;BME280;46042;49.444;6.862;2023-02-02T01:08:59;99422.75;;;3.86;100.00
60170;BME280;46042;49.444;6.862;2023-02-02T01:11:26;99412.31;;;3.86;100.00
60170;BME280;46042;49.444;6.862;2023-02-02T01:13:53;99427.16;;;3.83;100.00
60170;BME280;46042;49.444;6.862;2023-02-02T01:16:19;99425.34;;;3.86;100.00
60170;BME280;46042;49.444;6.862;2023-02-02T01:18:49;99421.84;;;3.87;100.00
60170;BME280;46042;49.444;6.862;2023-02-02T01:21:16;99417.50;;;3.87;100.00
60170;BME280;46042;49.444;6.862;2023-02-02T01:23:43;99421.81;;;3.88;100.00
60170;BME280;46042;49.444;6.862;2023-02-02T01:26:11;99426.97;;;3.90;100.00
60170;BME280;46042;49.444;6.862;2023-02-02T01:28:38;99425.34;;;3.87;100.00
60170;BME280;46042;49.444;6.862;2023-02-02T01:31:17;99423.47;;;3.91;100.00
60170;BME280;46042;49.444;6.862;2023-02-02T01:33:45;99418.25;;;3.91;100.00
60170;BME280;46042;49.444;6.862;2023-02-02T01:36:15;99426.91;;;3.93;100.00
60170;BME280;46042;49.444;6.862;2023-02-02T01:38:42;99424.28;;;3.93;100.00
60170;BME280;46042;49.444;6.862;2023-02-02T01:41:15;99419.97;;;3.92;100.00
60170;BME280;46042;49.444;6.862;2023-02-02T01:46:16;99413.81;;;3.96;100.00
60170;BME280;46042;49.444;6.862;2023-02-02T01:48:47;99419.91;;;3.95;100.00
60170;BME280;46042;49.444;6.862;2023-02-02T01:51:17;99417.25;;;3.96;100.00
60170;BME280;46042;49.444;6.862;2023-02-02T01:53:46;99411.13;;;3.97;100.00
60170;BME280;46042;49.444;6.862;2023-02-02T01:56:19;99415.59;;;3.94;100.00
60170;BME280;46042;49.444;6.862;2023-02-02T01:58:49;99425.13;;;3.95;100.00
60170;BME280;46042;49.444;6.862;2023-02-02T02:01:16;99423.38;;;3.95;100.00
60170;BME280;46042;49.444;6.862;2023-02-02T02:03:43;99408.59;;;3.96;100.00
60170;BME280;46042;49.444;6.862;2023-02-02T02:06:13;99405.19;;;3.94;100.00
60170;BME280;46042;49.444;6.862;2023-02-02T02:08:51;99400.03;;;3.91;100.00
60170;BME280;46042;49.444;6.862;2023-02-02T02:11:19;99403.44;;;3.93;100.00
60170;BME280;46042;49.444;6.862;2023-02-02T02:13:46;99411.31;;;3.91;100.00
60170;BME280;46042;49.444;6.862;2023-02-02T02:34:32;99422.53;;;3.95;100.00
60170;BME280;46042;49.444;6.862;2023-02-02T02:39:34;99415.53;;;3.95;100.00
60170;BME280;46042;49.444;6.862;2023-02-02T02:42:12;99429.44;;;3.96;100.00
60170;BME280;46042;49.444;6.862;2023-02-02T02:44:40;99431.25;;;3.94;100.00
60170;BME280;46042;49.444;6.862;2023-02-02T02:47:07;99432.91;;;3.96;100.00
60170;BME280;46042;49.444;6.862;2023-02-02T02:49:42;99429.44;;;3.96;100.00
60170;BME280;46042;49.444;6.862;2023-02-02T02:52:09;99423.44;;;3.94;100.00
60170;BME280;46042;49.444;6.862;2023-02-02T02:54:54;99423.44;;;3.92;100.00
60170;BME280;46042;49.444;6.862;2023-02-02T03:00:37;99429.56;;;3.91;100.00
60170;BME280;46042;49.444;6.862;2023-02-02T03:06:14;99442.53;;;3.93;100.00
60170;BME280;46042;49.444;6.862;2023-02-02T03:08:54;99440.81;;;3.92;100.00
60170;BME280;46042;49.444;6.862;2023-02-02T03:11:23;99433.84;;;3.94;100.00
60170;BME280;46042;49.444;6.862;2023-02-02T03:13:50;99441.63;;;3.95;100.00
60170;BME280;46042;49.444;6.862;2023-02-02T03:16:17;99439.00;;;3.95;100.00
60170;BME280;46042;49.444;6.862;2023-02-02T03:18:44;99432.06;;;3.96;100.00
60170;BME280;46042;49.444;6.862;2023-02-02T03:21:11;99426.78;;;3.97;100.00
60170;BME280;46042;49.444;6.862;2023-02-02T03:23:38;99426.78;;;3.97;100.00
60170;BME280;46042;49.444;6.862;2023-02-02T03:26:05;99421.56;;;3.97;100.00
60170;BME280;46042;49.444;6.862;2023-02-02T03:28:33;99430.19;;;3.99;100.00
60170;BME280;46042;49.444;6.862;2023-02-02T03:31:00;99438.84;;;4.02;100.00
60170;BME280;46042;49.444;6.862;2023-02-02T03:33:28;99431.97;;;3.99;100.00
60170;BME280;46042;49.444;6.862;2023-02-02T03:35:56;99436.28;;;4.00;100.00
60170;BME280;46042;49.444;6.862;2023-02-02T03:38:22;99428.41;;;4.02;100.00
60170;BME280;46042;49.444;6.862;2023-02-02T03:40:50;99430.19;;;3.99;100.00
60170;BME280;46042;49.444;6.862;2023-02-02T03:43:23;99427.53;;;4.03;100.00
60170;BME280;46042;49.444;6.862;2023-02-02T03:45:58;99426.66;;;4.02;100.00
60170;BME280;46042;49.444;6.862;2023-02-02T03:48:25;99435.38;;;4.03;100.00
60170;BME280;46042;49.444;6.862;2023-02-02T03:50:55;99432.75;;;4.03;100.00
60170;BME280;46042;49.444;6.862;2023-02-02T03:53:23;99440.50;;;4.04;100.00
60170;BME280;46042;49.444;6.862;2023-02-02T03:55:49;99435.38;;;4.03;100.00
60170;BME280;46042;49.444;6.862;2023-02-02T03:58:16;99436.19;;;4.03;100.00
60170;BME280;46042;49.444;6.862;2023-02-02T04:00:42;99439.63;;;4.05;100.00
60170;BME280;46042;49.444;6.862;2023-02-02T04:03:09;99441.41;;;4.03;100.00
60170;BME280;46042;49.444;6.862;2023-02-02T04:05:36;99447.50;;;4.04;100.00
60170;BME280;46042;49.444;6.862;2023-02-02T04:08:02;99451.84;;;4.03;100.00
60170;BME280;46042;49.444;6.862;2023-02-02T04:10:29;99450.06;;;4.05;100.00
60170;BME280;46042;49.444;6.862;2023-02-02T04:12:56;99450.91;;;4.06;100.00
60170;BME280;46042;49.444;6.862;2023-02-02T04:15:22;99455.34;;;4.02;100.00
60170;BME280;46042;49.444;6.862;2023-02-02T04:17:49;99448.44;;;4.01;100.00
60170;BME280;46042;49.444;6.862;2023-02-02T04:20:16;99454.47;;;4.02;100.00
60170;BME280;46042;49.444;6.862;2023-02-02T04:22:43;99445.81;;;4.01;100.00
60170;BME280;46042;49.444;6.862;2023-02-02T04:25:09;99453.63;;;4.03;100.00
60170;BME280;46042;49.444;6.862;2023-02-02T04:27:36;99455.34;;;4.02;100.00
60170;BME280;46042;49.444;6.862;2023-02-02T04:30:02;99453.66;;;3.99;100.00
60170;BME280;46042;49.444;6.862;2023-02-02T04:32:29;99452.72;;;4.04;100.00
60170;BME280;46042;49.444;6.862;2023-02-02T04:34:56;99440.63;;;3.99;100.00
60170;BME280;46042;49.444;6.862;2023-02-02T04:37:22;99448.44;;;3.99;100.00
60170;BME280;46042;49.444;6.862;2023-02-02T04:39:49;99432.81;;;3.99;100.00
60170;BME280;46042;49.444;6.862;2023-02-02T04:42:16;99440.63;;;3.99;100.00
60170;BME280;46042;49.444;6.862;2023-02-02T04:44:42;99437.13;;;4.01;100.00
60170;BME280;46042;49.444;6.862;2023-02-02T04:47:11;99434.53;;;4.01;100.00
60170;BME280;46042;49.444;6.862;2023-02-02T04:49:37;99441.44;;;4.02;100.00
60170;BME280;46042;49.444;6.862;2023-02-02T04:52:04;99437.13;;;4.01;100.00
60170;BME280;46042;49.444;6.862;2023-02-02T04:54:32;99436.22;;;4.02;100.00
60170;BME280;46042;49.444;6.862;2023-02-02T04:56:59;99439.72;;;4.02;100.00
60170;BME280;46042;49.444;6.862;2023-02-02T04:59:27;99444.00;;;4.05;100.00
60170;BME280;46042;49.444;6.862;2023-02-02T05:01:59;99449.22;;;4.05;100.00
60170;BME280;46042;49.444;6.862;2023-02-02T05:04:26;99457.94;;;4.04;100.00
60170;BME280;46042;49.444;6.862;2023-02-02T05:06:53;99459.63;;;4.05;100.00
60170;BME280;46042;49.444;6.862;2023-02-02T05:09:20;99457.94;;;4.04;100.00
60170;BME280;46042;49.444;6.862;2023-02-02T05:11:47;99461.28;;;4.07;100.00
60170;BME280;46042;49.444;6.862;2023-02-02T05:14:13;99463.97;;;4.04;100.00
60170;BME280;46042;49.444;6.862;2023-02-02T05:16:44;99471.78;;;4.06;100.00
60170;BME280;46042;49.444;6.862;2023-02-02T05:19:11;99470.09;;;4.03;100.00
60170;BME280;46042;49.444;6.862;2023-02-02T05:21:38;99479.59;;;4.06;100.00
60170;BME280;46042;49.444;6.862;2023-02-02T05:24:04;99475.22;;;4.06;100.00
60170;BME280;46042;49.444;6.862;2023-02-02T05:26:31;99483.84;;;4.08;100.00
60170;BME280;46042;49.444;6.862;2023-02-02T05:28:58;99482.16;;;4.07;100.00
60170;BME280;46042;49.444;6.862;2023-02-02T05:31:24;99479.59;;;4.06;100.00
60170;BME280;46042;49.444;6.862;2023-02-02T05:33:51;99485.63;;;4.08;100.00
60170;BME280;46042;49.444;6.862;2023-02-02T05:36:18;99479.50;;;4.09;100.00
60170;BME280;46042;49.444;6.862;2023-02-02T05:38:44;99488.19;;;4.09;100.00
60170;BME280;46042;49.444;6.862;2023-02-02T05:41:11;99489.88;;;4.10;100.00
60170;BME280;46042;49.444;6.862;2023-02-02T05:43:37;99485.53;;;4.11;100.00
60170;BME280;46042;49.444;6.862;2023-02-02T05:46:04;99497.72;;;4.10;100.00
60170;BME280;46042;49.444;6.862;2023-02-02T05:48:31;99499.50;;;4.08;100.00
60170;BME280;46042;49.444;6.862;2023-02-02T05:51:14;99501.22;;;4.09;100.00
60170;BME280;46042;49.444;6.862;2023-02-02T05:53:41;99509.00;;;4.11;100.00
60170;BME280;46042;49.444;6.862;2023-02-02T05:56:11;99513.34;;;4.10;100.00
60170;BME280;46042;49.444;6.862;2023-02-02T05:58:38;99516.81;;;4.12;100.00
60170;BME280;46042;49.444;6.862;2023-02-02T06:01:04;99512.50;;;4.11;100.00
60170;BME280;46042;49.444;6.862;2023-02-02T06:03:31;99515.91;;;4.13;100.00
60170;BME280;46042;49.444;6.862;2023-02-02T06:05:58;99527.25;;;4.12;100.00
60170;BME280;46042;49.444;6.862;2023-02-02T06:08:25;99537.66;;;4.12;100.00
60170;BME280;46042;49.444;6.862;2023-02-02T06:10:51;99540.28;;;4.12;100.00
60170;BME280;46042;49.444;6.862;2023-02-02T06:13:18;99544.50;;;4.17;100.00
60170;BME280;46042;49.444;6.862;2023-02-02T06:15:44;99543.66;;;4.16;100.00
60170;BME280;46042;49.444;6.862;2023-02-02T06:18:11;99542.81;;;4.16;100.00
60170;BME280;46042;49.444;6.862;2023-02-02T06:20:38;99546.25;;;4.16;100.00
60170;BME280;46042;49.444;6.862;2023-02-02T06:23:05;99545.41;;;4.16;100.00
60170;BME280;46042;49.444;6.862;2023-02-02T06:25:32;99534.97;;;4.16;100.00
60170;BME280;46042;49.444;6.862;2023-02-02T06:28:00;99529.78;;;4.14;100.00
60170;BME280;46042;49.444;6.862;2023-02-02T06:30:27;99539.41;;;4.12;100.00
60170;BME280;46042;49.444;6.862;2023-02-02T06:32:53;99525.38;;;4.16;100.00
60170;BME280;46042;49.444;6.862;2023-02-02T06:35:20;99534.09;;;4.15;100.00
60170;BME280;46042;49.444;6.862;2023-02-02T06:37:47;99526.34;;;4.13;100.00
60170;BME280;46042;49.444;6.862;2023-02-02T06:40:14;99532.41;;;4.14;100.00
60170;BME280;46042;49.444;6.862;2023-02-02T06:42:41;99534.09;;;4.15;100.00
60170;BME280;46042;49.444;6.862;2023-02-02T06:45:08;99545.31;;;4.20;100.00
60170;BME280;46042;49.444;6.862;2023-02-02T06:47:35;99532.31;;;4.17;100.00
60170;BME280;46042;49.444;6.862;2023-02-02T06:50:02;99531.47;;;4.17;100.00
60170;BME280;46042;49.444;6.862;2023-02-02T06:52:29;99528.88;;;4.17;100.00
60170;BME280;46042;49.444;6.862;2023-02-02T06:54:55;99521.94;;;4.16;100.00
60170;BME280;46042;49.444;6.862;2023-02-02T06:57:22;99528.00;;;4.16;100.00
60170;BME280;46042;49.444;6.862;2023-02-02T06:59:49;99532.28;;;4.19;100.00
60170;BME280;46042;49.444;6.862;2023-02-02T07:02:16;99539.19;;;4.21;100.00
60170;BME280;46042;49.444;6.862;2023-02-02T07:04:43;99534.09;;;4.15;100.00
60170;BME280;46042;49.444;6.862;2023-02-02T07:07:09;99521.03;;;4.17;100.00
60170;BME280;46042;49.444;6.862;2023-02-02T07:09:36;99521.03;;;4.17;100.00
60170;BME280;46042;49.444;6.862;2023-02-02T07:12:02;99520.97;;;4.18;100.00
60170;BME280;46042;49.444;6.862;2023-02-02T07:14:29;99523.56;;;4.20;100.00
60170;BME280;46042;49.444;6.862;2023-02-02T07:16:55;99518.34;;;4.20;100.00
60170;BME280;46042;49.444;6.862;2023-02-02T07:19:22;99514.81;;;4.22;100.00
60170;BME280;46042;49.444;6.862;2023-02-02T07:21:49;99512.22;;;4.22;100.00
60170;BME280;46042;49.444;6.862;2023-02-02T07:24:15;99516.53;;;4.23;100.00
60170;BME280;46042;49.444;6.862;2023-02-02T07:26:42;99523.56;;;4.20;100.00
60170;BME280;46042;49.444;6.862;2023-02-02T07:29:11;99527.06;;;4.19;100.00
60170;BME280;46042;49.444;6.862;2023-02-02T07:31:39;99539.22;;;4.20;100.00
60170;BME280;46042;49.444;6.862;2023-02-02T07:34:06;99542.69;;;4.20;100.00
60170;BME280;46042;49.444;6.862;2023-02-02T07:36:32;99545.31;;;4.20;100.00
60170;BME280;46042;49.444;6.862;2023-02-02T07:38:59;99547.94;;;4.19;100.00
60170;BME280;46042;49.444;6.862;2023-02-02T07:41:29;99558.34;;;4.20;100.00
60170;BME280;46042;49.444;6.862;2023-02-02T07:43:56;99564.31;;;4.24;100.00
60170;BME280;46042;49.444;6.862;2023-02-02T07:46:23;99579.88;;;4.27;100.00
60170;BME280;46042;49.444;6.862;2023-02-02T07:48:53;99579.88;;;4.27;100.00
60170;BME280;46042;49.444;6.862;2023-02-02T07:51:21;99580.75;;;4.27;100.00
60170;BME280;46042;49.444;6.862;2023-02-02T07:53:50;99583.44;;;4.24;100.00
60170;BME280;46042;49.444;6.862;2023-02-02T07:56:19;99585.19;;;4.24;100.00
60170;BME280;46042;49.444;6.862;2023-02-02T07:58:47;99591.28;;;4.24;100.00
60170;BME280;46042;49.444;6.862;2023-02-02T08:01:14;99606.91;;;4.24;100.00
60170;BME280;46042;49.444;6.862;2023-02-02T08:03:42;99611.25;;;4.24;100.00
60170;BME280;46042;49.444;6.862;2023-02-02T08:06:16;99616.47;;;4.24;100.00
60170;BME280;46042;49.444;6.862;2023-02-02T08:08:43;99608.63;;;4.25;100.00
60170;BME280;46042;49.444;6.862;2023-02-02T08:11:12;99606.88;;;4.26;100.00
60170;BME280;46042;49.444;6.862;2023-02-02T08:13:40;99610.31;;;4.28;100.00
60170;BME280;46042;49.444;6.862;2023-02-02T08:16:08;99604.22;;;4.29;100.00
60170;BME280;46042;49.444;6.862;2023-02-02T08:18:35;99608.53;;;4.29;100.00
60170;BME280;46042;49.444;6.862;2023-02-02T08:21:04;99609.38;;;4.31;100.00
60170;BME280;46042;49.444;6.862;2023-02-02T08:23:31;99611.06;;;4.32;100.00
60170;BME280;46042;49.444;6.862;2023-02-02T08:26:09;99611.13;;;4.30;100.00
60170;BME280;46042;49.444;6.862;2023-02-02T08:28:36;99614.56;;;4.32;100.00
60170;BME280;46042;49.444;6.862;2023-02-02T08:31:20;99617.09;;;4.35;100.00
60170;BME280;46042;49.444;6.862;2023-02-02T08:33:47;99613.56;;;4.36;100.00
60170;BME280;46042;49.444;6.862;2023-02-02T08:36:17;99614.44;;;4.37;100.00
60170;BME280;46042;49.444;6.862;2023-02-02T08:38:45;99622.22;;;4.38;100.00
60170;BME280;46042;49.444;6.862;2023-02-02T08:41:14;99617.09;;;4.34;100.00
60170;BME280;46042;49.444;6.862;2023-02-02T08:43:42;99626.63;;;4.36;100.00
60170;BME280;46042;49.444;6.862;2023-02-02T08:46:10;99631.03;;;4.34;100.00
60170;BME280;46042;49.444;6.862;2023-02-02T08:48:38;99619.72;;;4.34;100.00
60170;BME280;46042;49.444;6.862;2023-02-02T08:51:06;99614.44;;;4.37;100.00
60170;BME280;46042;49.444;6.862;2023-02-02T08:53:33;99603.16;;;4.35;100.00
60170;BME280;46042;49.444;6.862;2023-02-02T08:56:17;99612.69;;;4.37;100.00
60170;BME280;46042;49.444;6.862;2023-02-02T08:58:51;99606.56;;;4.38;100.00
60170;BME280;46042;49.444;6.862;2023-02-02T09:01:20;99617.88;;;4.39;100.00
60170;BME280;46042;49.444;6.862;2023-02-02T09:03:51;99616.91;;;4.43;100.00
60170;BME280;46042;49.444;6.862;2023-02-02T09:06:19;99617.72;;;4.45;100.00
60170;BME280;46042;49.444;6.862;2023-02-02T09:08:47;99617.72;;;4.44;100.00
60170;BME280;46042;49.444;6.862;2023-02-02T09:11:18;99613.28;;;4.49;100.00
60170;BME280;46042;49.444;6.862;2023-02-02T09:13:46;99618.44;;;4.50;100.00
60170;BME280;46042;49.444;6.862;2023-02-02T09:16:17;99617.50;;;4.53;100.00
60170;BME280;46042;49.444;6.862;2023-02-02T09:18:44;99627.03;;;4.55;100.00
60170;BME280;46042;49.444;6.862;2023-02-02T09:21:13;99626.97;;;4.57;100.00
60170;BME280;46042;49.444;6.862;2023-02-02T09:23:41;99632.13;;;4.60;100.00
60170;BME280;46042;49.444;6.862;2023-02-02T09:26:14;99629.38;;;4.66;100.00
60170;BME280;46042;49.444;6.862;2023-02-02T09:28:48;99636.81;;;4.80;100.00
60170;BME280;46042;49.444;6.862;2023-02-02T09:31:15;99643.84;;;5.11;100.00
60170;BME280;46042;49.444;6.862;2023-02-02T09:33:42;99631.13;;;5.31;100.00
60170;BME280;46042;49.444;6.862;2023-02-02T09:38:36;99636.00;;;5.43;100.00
60170;BME280;46042;49.444;6.862;2023-02-02T09:46:58;99640.47;;;5.39;100.00
60170;BME280;46042;49.444;6.862;2023-02-02T09:49:39;99643.75;;;5.46;100.00
60170;BME280;46042;49.444;6.862;2023-02-02T09:52:16;99662.31;;;5.37;100.00
60170;BME280;46042;49.444;6.862;2023-02-02T09:54:46;99658.06;;;5.33;100.00
60170;BME280;46042;49.444;6.862;2023-02-02T09:57:20;99658.22;;;5.26;100.00
60170;BME280;46042;49.444;6.862;2023-02-02T09:59:49;99668.69;;;5.26;100.00
60170;BME280;46042;49.444;6.862;2023-02-02T10:02:31;99666.34;;;5.17;100.00
60170;BME280;46042;49.444;6.862;2023-02-02T10:05:24;99662.13;;;5.11;100.00
60170;BME280;46042;49.444;6.862;2023-02-02T10:07:56;99663.16;;;5.06;100.00
60170;BME280;46042;49.444;6.862;2023-02-02T10:10:38;99661.53;;;5.02;100.00
60170;BME280;46042;49.444;6.862;2023-02-02T10:13:10;99667.38;;;5.10;100.00
60170;BME280;46042;49.444;6.862;2023-02-02T10:20:56;99676.69;;;5.20;100.00
60170;BME280;46042;49.444;6.862;2023-02-02T10:23:28;99677.53;;;5.21;100.00
60170;BME280;46042;49.444;6.862;2023-02-02T10:26:18;99681.59;;;5.33;100.00
60170;BME280;46042;49.444;6.862;2023-02-02T10:29:17;99684.22;;;5.31;100.00
60170;BME280;46042;49.444;6.862;2023-02-02T10:37:52;99696.50;;;5.29;100.00
60170;BME280;46042;49.444;6.862;2023-02-02T10:40:41;99705.22;;;5.28;100.00
60170;BME280;46042;49.444;6.862;2023-02-02T10:46:26;99693.91;;;5.27;100.00
60170;BME280;46042;49.444;6.862;2023-02-02T10:49:26;99701.91;;;5.21;100.00
60170;BME280;46042;49.444;6.862;2023-02-02T10:52:06;99715.16;;;5.15;100.00
60170;BME280;46042;49.444;6.862;2023-02-02T11:02:33;99709.84;;;5.18;100.00
60170;BME280;46042;49.444;6.862;2023-02-02T11:04:59;99708.97;;;5.18;100.00
60170;BME280;46042;49.444;6.862;2023-02-02T11:07:44;99701.03;;;5.22;100.00
60170;BME280;46042;49.444;6.862;2023-02-02T11:10:11;99702.50;;;5.33;100.00
60170;BME280;46042;49.444;6.862;2023-02-02T11:12:41;99703.00;;;5.46;100.00
60170;BME280;46042;49.444;6.862;2023-02-02T11:15:28;99707.22;;;5.51;100.00
60170;BME280;46042;49.444;6.862;2023-02-02T11:17:55;99715.88;;;5.53;100.00
60170;BME280;46042;49.444;6.862;2023-02-02T11:20:31;99713.13;;;5.58;100.00
60170;BME280;46042;49.444;6.862;2023-02-02T11:23:00;99711.94;;;5.68;100.00
60170;BME280;46042;49.444;6.862;2023-02-02T11:25:36;99717.06;;;5.73;100.00
60170;BME280;46042;49.444;6.862;2023-02-02T11:28:12;99712.59;;;5.77;100.00
60170;BME280;46042;49.444;6.862;2023-02-02T11:30:48;99705.28;;;5.88;100.00
60170;BME280;46042;49.444;6.862;2023-02-02T11:33:30;99708.56;;;5.95;100.00
60170;BME280;46042;49.444;6.862;2023-02-02T11:36:03;99703.13;;;6.04;100.00
60170;BME280;46042;49.444;6.862;2023-02-02T11:38:31;99703.25;;;5.98;100.00
60170;BME280;46042;49.444;6.862;2023-02-02T11:41:03;99710.06;;;6.05;100.00
60170;BME280;46042;49.444;6.862;2023-02-02T11:43:37;99704.81;;;6.05;100.00
60170;BME280;46042;49.444;6.862;2023-02-02T11:49:04;99695.16;;;6.07;100.00
60170;BME280;46042;49.444;6.862;2023-02-02T11:51:35;99690.75;;;6.09;100.00
60170;BME280;46042;49.444;6.862;2023-02-02T11:54:06;99685.25;;;6.19;100.00
60170;BME280;46042;49.444;6.862;2023-02-02T11:56:40;99676.50;;;6.18;100.00
60170;BME280;46042;49.444;6.862;2023-02-02T12:02:20;99680.72;;;6.24;100.00
60170;BME280;46042;49.444;6.862;2023-02-02T12:04:50;99678.47;;;6.11;100.00
60170;BME280;46042;49.444;6.862;2023-02-02T12:07:27;99680.03;;;6.17;100.00
60170;BME280;46042;49.444;6.862;2023-02-02T12:09:58;99680.97;;;6.15;100.00
60170;BME280;46042;49.444;6.862;2023-02-02T12:12:49;99683.59;;;6.15;100.00
60170;BME280;46042;49.444;6.862;2023-02-02T12:15:32;99675.19;;;6.05;100.00
60170;BME280;46042;49.444;6.862;2023-02-02T12:21:05;99684.50;;;6.14;100.00
60170;BME280;46042;49.444;6.862;2023-02-02T12:26:16;99688.09;;;6.11;100.00
60170;BME280;46042;49.444;6.862;2023-02-02T12:43:40;99667.19;;;6.09;100.00
60170;BME280;46042;49.444;6.862;2023-02-02T13:08:49;99681.03;;;6.42;100.00
60170;BME280;46042;49.444;6.862;2023-02-02T13:11:49;99675.13;;;6.35;100.00
60170;BME280;46042;49.444;6.862;2023-02-02T13:14:28;99667.38;;;6.32;100.00
60170;BME280;46042;49.444;6.862;2023-02-02T13:17:01;99675.47;;;6.24;100.00
60170;BME280;46042;49.444;6.862;2023-02-02T13:20:12;99675.00;;;6.11;100.00
60170;BME280;46042;49.444;6.862;2023-02-02T13:22:36;99660.50;;;5.99;100.00
60170;BME280;46042;49.444;6.862;2023-02-02T13:25:08;99658.03;;;5.94;100.00
60170;BME280;46042;49.444;6.862;2023-02-02T13:27:42;99662.50;;;5.91;100.00
60170;BME280;46042;49.444;6.862;2023-02-02T13:30:21;99672.66;;;6.02;100.00
60170;BME280;46042;49.444;6.862;2023-02-02T13:32:52;99667.09;;;6.12;100.00
60170;BME280;46042;49.444;6.862;2023-02-02T13:35:27;99666.06;;;6.18;100.00
60170;BME280;46042;49.444;6.862;2023-02-02T13:40:42;99664.34;;;6.17;100.00
60170;BME280;46042;49.444;6.862;2023-02-02T13:46:34;99665.59;;;6.05;100.00
60170;BME280;46042;49.444;6.862;2023-02-02T13:49:09;99657.50;;;6.13;100.00
60170;BME280;46042;49.444;6.862;2023-02-02T13:51:45;99666.50;;;6.04;100.00
60170;BME280;46042;49.444;6.862;2023-02-02T13:54:53;99665.72;;;5.99;100.00
60170;BME280;46042;49.444;6.862;2023-02-02T14:02:52;99665.53;;;5.77;100.00
60170;BME280;46042;49.444;6.862;2023-02-02T14:08:16;99668.25;;;5.74;100.00
60170;BME280;46042;49.444;6.862;2023-02-02T14:13:23;99681.44;;;5.69;100.00
60170;BME280;46042;49.444;6.862;2023-02-02T14:18:57;99683.31;;;5.64;100.00
60170;BME280;46042;49.444;6.862;2023-02-02T14:27:00;99691.31;;;5.59;100.00
60170;BME280;46042;49.444;6.862;2023-02-02T14:43:26;99707.34;;;5.47;100.00
60170;BME280;46042;49.444;6.862;2023-02-02T14:48:42;99711.69;;;5.46;100.00
60170;BME280;46042;49.444;6.862;2023-02-02T14:51:13;99717.81;;;5.45;100.00
60170;BME280;46042;49.444;6.862;2023-02-02T14:53:50;99723.09;;;5.44;100.00
60170;BME280;46042;49.444;6.862;2023-02-02T14:56:19;99729.31;;;5.39;100.00
60170;BME280;46042;49.444;6.862;2023-02-02T15:06:33;99737.38;;;5.30;100.00
60170;BME280;46042;49.444;6.862;2023-02-02T15:09:36;99738.38;;;5.26;100.00
60170;BME280;46042;49.444;6.862;2023-02-02T15:14:48;99746.22;;;5.26;100.00
60170;BME280;46042;49.444;6.862;2023-02-02T15:17:33;99754.13;;;5.23;100.00
60170;BME280;46042;49.444;6.862;2023-02-02T15:22:47;99761.19;;;5.19;100.00
60170;BME280;46042;49.444;6.862;2023-02-02T15:25:26;99761.22;;;5.18;100.00
60170;BME280;46042;49.444;6.862;2023-02-02T15:30:43;99770.13;;;5.10;100.00
60170;BME280;46042;49.444;6.862;2023-02-02T15:33:29;99762.28;;;5.10;100.00
60170;BME280;46042;49.444;6.862;2023-02-02T15:35:58;99781.41;;;5.11;100.00
60170;BME280;46042;49.444;6.862;2023-02-02T15:38:35;99774.53;;;5.08;100.00
60170;BME280;46042;49.444;6.862;2023-02-02T15:41:41;99787.53;;;5.10;100.00
60170;BME280;46042;49.444;6.862;2023-02-02T15:44:19;99784.09;;;5.08;100.00
60170;BME280;46042;49.444;6.862;2023-02-02T15:46:47;99784.09;;;5.08;100.00
60170;BME280;46042;49.444;6.862;2023-02-02T15:52:12;99786.00;;;5.01;100.00
60170;BME280;46042;49.444;6.862;2023-02-02T15:54:49;99788.75;;;4.96;100.00
60170;BME280;46042;49.444;6.862;2023-02-02T15:57:25;99789.66;;;4.94;100.00
60170;BME280;46042;49.444;6.862;2023-02-02T15:59:52;99789.75;;;4.91;100.00
60170;BME280;46042;49.444;6.862;2023-02-02T16:02:25;99792.31;;;4.92;100.00
60170;BME280;46042;49.444;6.862;2023-02-02T16:04:53;99800.13;;;4.92;100.00
60170;BME280;46042;49.444;6.862;2023-02-02T16:07:27;99810.63;;;4.91;100.00
60170;BME280;46042;49.444;6.862;2023-02-02T16:10:04;99809.84;;;4.87;100.00